createdAt,value
2022-08-20T00:00:05.766Z,18.88
2022-08-20T00:01:09.176Z,19.06
2022-08-20T00:02:12.385Z,19.09
2022-08-20T00:03:17.333Z,19.12
2022-08-20T00:04:20.413Z,19.21
2022-08-20T00:05:33.016Z,19.23
2022-08-20T00:06:36.108Z,19.24
2022-08-20T00:07:39.186Z,19.24
2022-08-20T00:08:43.129Z,19.32
2022-08-20T00:09:46.106Z,19.35
2022-08-20T00:10:54.936Z,19.33
2022-08-20T00:11:58.653Z,19.44
2022-08-20T00:13:04.177Z,19.42
2022-08-20T00:14:08.246Z,19.43
2022-08-20T00:15:13.315Z,19.48
2022-08-20T00:16:19.158Z,19.41
2022-08-20T00:17:22.070Z,19.46
2022-08-20T00:18:25.429Z,19.34
2022-08-20T00:19:28.806Z,19.36
2022-08-20T00:20:35.975Z,19.44
2022-08-20T00:21:38.905Z,19.39
2022-08-20T00:22:45.781Z,19.36
2022-08-20T00:23:51.004Z,19.36
2022-08-20T00:24:53.975Z,19.33
2022-08-20T00:25:57.744Z,19.30
2022-08-20T00:27:00.996Z,19.34
2022-08-20T00:28:04.806Z,19.39
2022-08-20T00:29:07.731Z,19.36
2022-08-20T00:30:14.742Z,19.25
2022-08-20T00:31:20.551Z,19.29
2022-08-20T00:32:24.791Z,19.31
2022-08-20T00:33:27.715Z,19.26
2022-08-20T00:34:30.799Z,19.09
2022-08-20T00:35:36.060Z,19.19
2022-08-20T00:36:42.772Z,19.16
2022-08-20T00:37:46.009Z,18.99
2022-08-20T00:38:50.839Z,18.83
2022-08-20T00:39:53.972Z,18.94
2022-08-20T00:40:59.558Z,18.95
2022-08-20T00:42:02.602Z,18.85
2022-08-20T00:43:23.967Z,18.86
2022-08-20T00:44:27.364Z,18.87
2022-08-20T00:45:33.155Z,19.08
2022-08-20T00:46:37.452Z,19.03
2022-08-20T00:47:51.284Z,19.04
2022-08-20T00:48:57.010Z,18.90
2022-08-20T00:49:59.916Z,18.88
2022-08-20T00:51:08.565Z,18.98
2022-08-20T00:52:20.174Z,19.17
2022-08-20T00:53:26.264Z,19.21
2022-08-20T00:54:42.070Z,18.99
2022-08-20T00:55:45.496Z,18.83
2022-08-20T00:56:55.271Z,18.85
2022-08-20T00:58:05.589Z,18.94
2022-08-20T00:59:12.960Z,18.87
2022-08-20T01:00:23.040Z,19.10
2022-08-20T01:01:26.301Z,19.01
2022-08-20T01:02:31.757Z,19.19
2022-08-20T01:03:34.765Z,19.06
2022-08-20T01:04:38.155Z,19.03
2022-08-20T01:05:48.194Z,19.08
2022-08-20T01:06:51.256Z,19.02
2022-08-20T01:07:55.748Z,18.95
2022-08-20T01:09:02.451Z,18.94
2022-08-20T01:10:19.439Z,19.07
2022-08-20T01:11:30.536Z,19.07
2022-08-20T01:12:43.575Z,18.79
2022-08-20T01:13:47.275Z,18.61
2022-08-20T01:14:50.541Z,18.64
2022-08-20T01:15:56.462Z,18.81
2022-08-20T01:17:02.680Z,19.05
2022-08-20T01:18:10.184Z,19.06
2022-08-20T01:19:29.587Z,18.97
2022-08-20T01:20:38.833Z,19.07
2022-08-20T01:21:42.063Z,19.09
2022-08-20T01:23:21.662Z,19.15
2022-08-20T01:24:36.634Z,19.05
2022-08-20T01:25:45.760Z,18.80
2022-08-20T01:26:49.529Z,18.62
2022-08-20T01:27:55.731Z,18.40
2022-08-20T01:29:03.748Z,18.45
2022-08-20T01:30:07.992Z,18.57
2022-08-20T01:31:18.040Z,18.73
2022-08-20T01:32:23.184Z,18.71
2022-08-20T01:33:25.967Z,18.80
2022-08-20T01:34:30.337Z,18.97
2022-08-20T01:35:38.618Z,18.95
2022-08-20T01:36:48.838Z,18.65
2022-08-20T01:37:51.912Z,18.62
2022-08-20T01:38:55.019Z,18.83
2022-08-20T01:39:58.050Z,18.80
2022-08-20T01:41:28.208Z,18.89
2022-08-20T01:42:58.537Z,18.91
2022-08-20T01:44:11.009Z,18.66
2022-08-20T01:45:20.244Z,18.62
2022-08-20T01:46:36.747Z,18.83
2022-08-20T01:47:42.320Z,18.69
2022-08-20T01:48:47.833Z,18.90
2022-08-20T01:49:54.849Z,18.84
2022-08-20T01:51:19.254Z,18.98
2022-08-20T01:52:32.757Z,19.07
2022-08-20T01:53:41.954Z,19.11
2022-08-20T01:54:47.149Z,19.18
2022-08-20T01:55:50.105Z,19.22
2022-08-20T01:57:03.670Z,19.12
2022-08-20T01:58:06.681Z,19.03
2022-08-20T01:59:09.724Z,18.84
2022-08-20T02:00:20.243Z,18.82
2022-08-20T02:01:45.858Z,19.04
2022-08-20T02:02:51.254Z,19.19
2022-08-20T02:03:55.084Z,19.04
2022-08-20T02:05:01.048Z,18.81
2022-08-20T02:06:04.220Z,18.54
2022-08-20T02:07:13.092Z,18.79
2022-08-20T02:08:16.185Z,18.82
2022-08-20T02:09:19.788Z,18.87
2022-08-20T02:10:23.995Z,19.00
2022-08-20T02:11:29.054Z,19.04
2022-08-20T02:12:32.033Z,18.90
2022-08-20T02:13:35.064Z,19.04
2022-08-20T02:14:48.605Z,18.85
2022-08-20T02:15:55.640Z,18.87
2022-08-20T02:17:00.086Z,18.80
2022-08-20T02:18:10.665Z,18.87
2022-08-20T02:19:20.117Z,18.97
2022-08-20T02:20:30.547Z,18.88
2022-08-20T02:21:38.299Z,18.96
2022-08-20T02:22:50.563Z,19.08
2022-08-20T02:23:53.577Z,18.83
2022-08-20T02:24:56.884Z,18.78
2022-08-20T02:26:00.401Z,18.66
2022-08-20T02:27:03.440Z,18.34
2022-08-20T02:28:10.794Z,18.43
2022-08-20T02:29:16.415Z,18.60
2022-08-20T02:30:27.818Z,18.67
2022-08-20T02:31:34.783Z,18.73
2022-08-20T02:32:39.512Z,18.45
2022-08-20T02:33:42.739Z,18.31
2022-08-20T02:35:09.002Z,18.36
2022-08-20T02:36:14.817Z,18.56
2022-08-20T02:37:19.693Z,18.29
2022-08-20T02:38:22.932Z,18.57
2022-08-20T02:39:27.242Z,18.44
2022-08-20T02:40:31.621Z,18.47
2022-08-20T02:41:35.638Z,18.65
2022-08-20T02:42:39.597Z,18.80
2022-08-20T02:43:42.801Z,18.87
2022-08-20T02:44:45.801Z,18.84
2022-08-20T02:45:49.151Z,18.80
2022-08-20T02:46:52.249Z,18.68
2022-08-20T02:47:57.362Z,18.70
2022-08-20T02:49:04.692Z,18.85
2022-08-20T02:50:08.521Z,18.80
2022-08-20T02:51:11.543Z,18.44
2022-08-20T02:52:14.517Z,18.53
2022-08-20T02:53:18.140Z,18.66
2022-08-20T02:54:21.099Z,18.28
2022-08-20T02:55:26.855Z,18.42
2022-08-20T02:56:30.648Z,18.31
2022-08-20T02:57:33.655Z,18.30
2022-08-20T02:58:37.710Z,18.48
2022-08-20T02:59:40.767Z,18.65
2022-08-20T03:00:44.929Z,18.65
2022-08-20T03:01:56.651Z,18.52
2022-08-20T03:03:04.368Z,18.26
2022-08-20T03:04:07.385Z,18.47
2022-08-20T03:05:10.753Z,18.69
2022-08-20T03:06:14.854Z,18.53
2022-08-20T03:07:18.039Z,18.51
2022-08-20T03:08:22.269Z,18.42
2022-08-20T03:09:25.468Z,18.42
2022-08-20T03:10:33.670Z,18.43
2022-08-20T03:11:36.806Z,18.64
2022-08-20T03:12:39.921Z,18.51
2022-08-20T03:13:43.016Z,18.45
2022-08-20T03:14:45.981Z,18.33
2022-08-20T03:15:59.267Z,18.54
2022-08-20T03:17:03.083Z,18.76
2022-08-20T03:18:05.923Z,18.55
2022-08-20T03:19:09.038Z,18.54
2022-08-20T03:20:12.986Z,18.55
2022-08-20T03:21:19.944Z,18.54
2022-08-20T03:22:23.115Z,18.56
2022-08-20T03:23:26.075Z,18.47
2022-08-20T03:24:29.042Z,18.24
2022-08-20T03:25:33.114Z,18.34
2022-08-20T03:26:37.879Z,18.43
2022-08-20T03:27:41.137Z,18.47
2022-08-20T03:28:44.400Z,18.47
2022-08-20T03:29:47.345Z,18.46
2022-08-20T03:30:51.751Z,18.39
2022-08-20T03:31:54.784Z,18.38
2022-08-20T03:32:58.309Z,18.19
2022-08-20T03:34:01.366Z,18.56
2022-08-20T03:35:11.126Z,18.39
2022-08-20T03:36:14.093Z,18.52
2022-08-20T03:37:24.224Z,18.40
2022-08-20T03:38:32.823Z,18.38
2022-08-20T03:39:37.116Z,18.19
2022-08-20T03:40:40.915Z,18.40
2022-08-20T03:41:43.970Z,18.36
2022-08-20T03:42:46.883Z,18.32
2022-08-20T03:43:49.867Z,18.23
2022-08-20T03:44:58.716Z,18.10
2022-08-20T03:46:02.512Z,18.10
2022-08-20T03:47:09.825Z,18.17
2022-08-20T03:48:17.012Z,18.37
2022-08-20T03:49:20.176Z,18.47
2022-08-20T03:50:26.269Z,18.65
2022-08-20T03:51:30.651Z,18.65
2022-08-20T03:52:33.683Z,18.61
2022-08-20T03:53:36.879Z,18.51
2022-08-20T03:54:40.488Z,18.53
2022-08-20T03:55:53.941Z,18.47
2022-08-20T03:56:57.561Z,18.57
2022-08-20T03:58:06.437Z,18.60
2022-08-20T03:59:09.926Z,18.44
2022-08-20T04:00:15.455Z,18.47
2022-08-20T04:02:28.595Z,18.34
2022-08-20T04:03:31.547Z,18.30
2022-08-20T04:04:34.767Z,18.42
2022-08-20T04:05:41.201Z,18.59
2022-08-20T04:06:44.435Z,18.76
2022-08-20T04:07:47.452Z,18.87
2022-08-20T04:08:50.821Z,18.88
2022-08-20T04:09:56.229Z,18.89
2022-08-20T04:11:00.217Z,18.94
2022-08-20T04:12:03.407Z,18.89
2022-08-20T04:13:07.495Z,18.75
2022-08-20T04:14:11.593Z,18.63
2022-08-20T04:15:19.586Z,18.56
2022-08-20T04:16:22.741Z,18.40
2022-08-20T04:17:26.910Z,18.31
2022-08-20T04:18:30.392Z,18.35
2022-08-20T04:19:34.374Z,18.36
2022-08-20T04:20:43.936Z,18.34
2022-08-20T04:21:48.768Z,18.33
2022-08-20T04:22:55.306Z,18.36
2022-08-20T04:24:05.117Z,18.33
2022-08-20T04:25:16.022Z,18.33
2022-08-20T04:26:20.207Z,18.36
2022-08-20T04:27:23.200Z,18.38
2022-08-20T04:28:28.722Z,18.35
2022-08-20T04:29:35.318Z,18.32
2022-08-20T04:30:39.108Z,18.36
2022-08-20T04:31:53.956Z,18.40
2022-08-20T04:32:57.098Z,18.49
2022-08-20T04:34:01.931Z,18.44
2022-08-20T04:35:07.885Z,18.45
2022-08-20T04:36:10.870Z,18.53
2022-08-20T04:37:16.906Z,18.58
2022-08-20T04:38:22.698Z,18.65
2022-08-20T04:39:25.920Z,18.70
2022-08-20T04:40:51.776Z,18.63
2022-08-20T04:41:56.284Z,18.65
2022-08-20T04:42:59.391Z,18.99
2022-08-20T04:44:02.476Z,19.09
2022-08-20T04:45:06.841Z,19.13
2022-08-20T04:46:10.390Z,18.96
2022-08-20T04:47:13.351Z,19.16
2022-08-20T04:48:16.340Z,19.23
2022-08-20T04:49:26.658Z,19.43
2022-08-20T04:50:33.709Z,19.38
2022-08-20T04:51:37.223Z,19.35
2022-08-20T04:52:40.719Z,19.53
2022-08-20T04:53:43.719Z,19.48
2022-08-20T04:54:53.958Z,19.43
2022-08-20T04:56:01.726Z,19.46
2022-08-20T04:57:04.843Z,19.42
2022-08-20T04:58:11.637Z,19.65
2022-08-20T04:59:15.213Z,19.77
2022-08-20T05:00:18.401Z,19.72
2022-08-20T05:01:24.268Z,19.70
2022-08-20T05:02:27.344Z,19.75
2022-08-20T05:03:31.365Z,19.74
2022-08-20T05:04:34.317Z,19.52
2022-08-20T05:05:37.298Z,19.66
2022-08-20T05:06:41.494Z,19.49
2022-08-20T05:07:46.670Z,19.51
2022-08-20T05:08:49.700Z,19.58
2022-08-20T05:09:53.005Z,19.50
2022-08-20T05:11:15.523Z,19.61
2022-08-20T05:12:20.052Z,19.55
2022-08-20T05:13:26.785Z,19.43
2022-08-20T05:14:30.683Z,19.28
2022-08-20T05:15:35.013Z,19.28
2022-08-20T05:16:40.846Z,19.30
2022-08-20T05:17:44.735Z,19.39
2022-08-20T05:18:52.236Z,19.57
2022-08-20T05:19:55.915Z,19.61
2022-08-20T05:21:04.333Z,19.74
2022-08-20T05:22:07.585Z,19.76
2022-08-20T05:23:12.232Z,19.70
2022-08-20T05:24:15.758Z,19.72
2022-08-20T05:25:19.205Z,19.60
2022-08-20T05:26:22.247Z,19.64
2022-08-20T05:27:27.584Z,19.67
2022-08-20T05:28:33.016Z,19.79
2022-08-20T05:29:39.910Z,19.86
2022-08-20T05:30:47.740Z,20.00
2022-08-20T05:31:50.752Z,20.12
2022-08-20T05:32:53.593Z,20.15
2022-08-20T05:33:58.118Z,20.29
2022-08-20T05:35:01.694Z,20.39
2022-08-20T05:36:06.933Z,20.36
2022-08-20T05:37:10.508Z,20.41
2022-08-20T05:38:18.411Z,20.44
2022-08-20T05:39:23.014Z,20.42
2022-08-20T05:40:26.000Z,20.30
2022-08-20T05:41:30.495Z,20.53
2022-08-20T05:42:33.542Z,20.66
2022-08-20T05:43:36.380Z,20.78
2022-08-20T05:44:39.640Z,20.73
2022-08-20T05:45:46.154Z,20.74
2022-08-20T05:46:49.329Z,20.69
2022-08-20T05:47:56.389Z,20.67
2022-08-20T05:49:02.121Z,20.69
2022-08-20T05:50:06.284Z,20.77
2022-08-20T05:51:12.084Z,20.79
2022-08-20T05:52:18.638Z,20.75
2022-08-20T05:53:23.365Z,20.79
2022-08-20T05:54:26.341Z,20.86
2022-08-20T05:55:29.507Z,20.90
2022-08-20T05:56:33.187Z,20.82
2022-08-20T05:57:37.117Z,20.78
2022-08-20T05:58:41.234Z,20.72
2022-08-20T05:59:44.037Z,20.64
2022-08-20T06:00:47.763Z,20.73
2022-08-20T06:01:51.323Z,20.81
2022-08-20T06:03:13.249Z,20.95
2022-08-20T06:04:25.109Z,20.72
2022-08-20T06:05:29.189Z,20.61
2022-08-20T06:06:45.762Z,20.66
2022-08-20T06:07:57.927Z,20.70
2022-08-20T06:09:10.722Z,20.76
2022-08-20T06:10:14.462Z,20.76
2022-08-20T06:11:17.370Z,20.76
2022-08-20T06:12:20.425Z,20.87
2022-08-20T06:13:23.649Z,20.92
2022-08-20T06:14:26.905Z,20.93
2022-08-20T06:15:31.126Z,21.04
2022-08-20T06:16:34.412Z,21.11
2022-08-20T06:17:40.903Z,21.17
2022-08-20T06:18:45.235Z,21.02
2022-08-20T06:19:48.678Z,21.05
2022-08-20T06:20:53.268Z,20.94
2022-08-20T06:21:56.840Z,20.93
2022-08-20T06:22:59.656Z,20.95
2022-08-20T06:24:02.676Z,20.94
2022-08-20T06:25:07.648Z,20.95
2022-08-20T06:26:11.378Z,21.06
2022-08-20T06:27:16.469Z,21.02
2022-08-20T06:28:20.002Z,20.99
2022-08-20T06:29:23.135Z,21.08
2022-08-20T06:30:26.253Z,21.18
2022-08-20T06:31:29.226Z,21.17
2022-08-20T06:32:33.113Z,21.25
2022-08-20T06:33:42.697Z,21.05
2022-08-20T06:34:50.093Z,20.95
2022-08-20T06:35:53.922Z,20.92
2022-08-20T06:37:04.769Z,20.89
2022-08-20T06:38:10.936Z,20.88
2022-08-20T06:39:15.031Z,20.90
2022-08-20T06:40:23.248Z,20.93
2022-08-20T06:41:36.856Z,20.95
2022-08-20T06:42:47.195Z,21.08
2022-08-20T06:43:54.261Z,21.04
2022-08-20T06:45:00.037Z,20.95
2022-08-20T06:46:03.207Z,20.99
2022-08-20T06:47:07.188Z,21.11
2022-08-20T06:48:15.098Z,21.22
2022-08-20T06:49:18.874Z,21.24
2022-08-20T06:50:30.235Z,21.05
2022-08-20T06:51:34.585Z,21.11
2022-08-20T06:52:52.704Z,21.00
2022-08-20T06:53:56.857Z,21.20
2022-08-20T06:54:59.814Z,21.15
2022-08-20T06:56:06.946Z,21.32
2022-08-20T06:57:09.954Z,21.38
2022-08-20T06:58:30.485Z,21.32
2022-08-20T06:59:39.232Z,21.41
2022-08-20T07:00:48.223Z,21.59
2022-08-20T07:01:51.323Z,21.62
2022-08-20T07:02:54.353Z,21.49
2022-08-20T07:04:00.019Z,21.62
2022-08-20T07:05:05.501Z,21.28
2022-08-20T07:06:09.158Z,21.31
2022-08-20T07:07:22.998Z,20.92
2022-08-20T07:08:25.979Z,20.76
2022-08-20T07:09:29.156Z,20.72
2022-08-20T07:10:32.270Z,20.85
2022-08-20T07:11:35.590Z,20.90
2022-08-20T07:12:38.575Z,20.68
2022-08-20T07:13:42.226Z,20.77
2022-08-20T07:14:45.249Z,20.70
2022-08-20T07:15:53.977Z,20.60
2022-08-20T07:16:57.172Z,20.77
2022-08-20T07:18:04.533Z,20.74
2022-08-20T07:19:08.631Z,20.67
2022-08-20T07:20:17.948Z,20.86
2022-08-20T07:21:20.909Z,20.90
2022-08-20T07:22:25.040Z,20.74
2022-08-20T07:23:28.770Z,20.76
2022-08-20T07:24:33.254Z,20.62
2022-08-20T07:25:37.380Z,20.64
2022-08-20T07:26:41.216Z,20.67
2022-08-20T07:27:45.634Z,20.76
2022-08-20T07:28:48.613Z,20.74
2022-08-20T07:30:15.270Z,20.69
2022-08-20T07:31:36.933Z,20.56
2022-08-20T07:32:39.813Z,20.70
2022-08-20T07:33:50.321Z,20.59
2022-08-20T07:34:53.626Z,20.60
2022-08-20T07:36:03.775Z,20.59
2022-08-20T07:37:10.992Z,20.60
2022-08-20T07:38:18.451Z,20.34
2022-08-20T07:39:21.603Z,20.45
2022-08-20T07:40:32.021Z,20.52
2022-08-20T07:41:36.334Z,20.52
2022-08-20T07:42:39.601Z,20.58
2022-08-20T07:43:46.238Z,20.44
2022-08-20T07:44:49.195Z,20.22
2022-08-20T07:45:55.909Z,20.31
2022-08-20T07:47:00.026Z,20.53
2022-08-20T07:48:12.111Z,20.41
2022-08-20T07:49:15.228Z,20.33
2022-08-20T07:50:23.839Z,20.21
2022-08-20T07:51:27.872Z,20.02
2022-08-20T07:52:30.848Z,20.09
2022-08-20T07:53:36.568Z,20.12
2022-08-20T07:54:39.709Z,20.26
2022-08-20T07:55:57.223Z,20.41
2022-08-20T07:57:03.631Z,20.37
2022-08-20T07:58:14.392Z,20.20
2022-08-20T07:59:17.465Z,20.26
2022-08-20T08:00:23.762Z,20.23
2022-08-20T08:01:30.611Z,20.21
2022-08-20T08:02:34.388Z,20.09
2022-08-20T08:03:49.174Z,19.96
2022-08-20T08:04:54.354Z,19.87
2022-08-20T08:05:57.390Z,19.80
2022-08-20T08:07:00.925Z,19.80
2022-08-20T08:08:07.310Z,19.80
2022-08-20T08:09:13.988Z,19.86
2022-08-20T08:10:22.450Z,19.82
2022-08-20T08:11:25.538Z,19.58
2022-08-20T08:12:36.705Z,19.52
2022-08-20T08:13:41.395Z,19.71
2022-08-20T08:14:46.596Z,19.55
2022-08-20T08:15:50.946Z,19.26
2022-08-20T08:16:58.736Z,19.27
2022-08-20T08:18:09.864Z,19.33
2022-08-20T08:19:17.523Z,19.21
2022-08-20T08:20:22.376Z,19.26
2022-08-20T08:21:29.770Z,19.32
2022-08-20T08:22:33.251Z,19.60
2022-08-20T08:23:36.429Z,19.66
2022-08-20T08:24:42.212Z,19.53
2022-08-20T08:26:00.298Z,19.57
2022-08-20T08:27:04.269Z,19.52
2022-08-20T08:28:07.292Z,19.34
2022-08-20T08:29:12.344Z,19.37
2022-08-20T08:30:17.193Z,19.50
2022-08-20T08:31:20.214Z,19.52
2022-08-20T08:32:23.428Z,19.46
2022-08-20T08:33:32.710Z,19.43
2022-08-20T08:34:36.995Z,19.51
2022-08-20T08:35:42.995Z,19.54
2022-08-20T08:36:46.221Z,19.67
2022-08-20T08:37:49.475Z,19.59
2022-08-20T08:38:52.570Z,19.45
2022-08-20T08:39:55.690Z,19.40
2022-08-20T08:41:04.302Z,19.51
2022-08-20T08:42:29.835Z,19.53
2022-08-20T08:43:33.062Z,19.47
2022-08-20T08:44:41.930Z,19.26
2022-08-20T08:45:48.500Z,19.21
2022-08-20T08:46:59.163Z,19.03
2022-08-20T08:48:02.392Z,19.05
2022-08-20T08:49:05.718Z,18.99
2022-08-20T08:50:38.223Z,19.06
2022-08-20T08:51:51.956Z,18.85
2022-08-20T08:52:59.763Z,18.77
2022-08-20T08:54:06.876Z,18.73
2022-08-20T08:55:16.715Z,18.77
2022-08-20T08:56:20.482Z,18.84
2022-08-20T08:57:24.460Z,18.89
2022-08-20T08:58:28.263Z,19.02
2022-08-20T09:00:02.331Z,19.09
2022-08-20T09:00:57.512Z,19.07
2022-08-20T09:02:07.239Z,18.97
2022-08-20T09:03:17.699Z,19.08
2022-08-20T09:04:24.808Z,19.05
2022-08-20T09:05:39.322Z,19.08
2022-08-20T09:06:43.669Z,19.12
2022-08-20T09:07:53.169Z,18.81
2022-08-20T09:09:04.414Z,18.65
2022-08-20T09:10:09.739Z,18.56
2022-08-20T09:11:13.009Z,18.45
2022-08-20T09:12:22.477Z,18.40
2022-08-20T09:13:25.438Z,18.73
2022-08-20T09:14:28.428Z,18.93
2022-08-20T09:15:31.332Z,19.12
2022-08-20T09:16:52.923Z,19.23
2022-08-20T09:17:57.128Z,19.16
2022-08-20T09:19:04.993Z,19.13
2022-08-20T09:20:10.943Z,19.09
2022-08-20T09:21:14.814Z,19.16
2022-08-20T09:22:22.024Z,19.14
2022-08-20T09:23:25.059Z,19.15
2022-08-20T09:24:28.041Z,19.34
2022-08-20T09:25:31.149Z,19.39
2022-08-20T09:26:38.594Z,19.39
2022-08-20T09:27:42.221Z,19.48
2022-08-20T09:28:51.594Z,19.53
2022-08-20T09:29:55.492Z,19.49
2022-08-20T09:30:58.870Z,19.47
2022-08-20T09:32:11.248Z,19.36
2022-08-20T09:33:14.241Z,19.09
2022-08-20T09:34:17.157Z,18.77
2022-08-20T09:35:20.080Z,18.68
2022-08-20T09:36:31.357Z,18.41
2022-08-20T09:37:37.645Z,18.19
2022-08-20T09:38:41.015Z,18.11
2022-08-20T09:39:44.109Z,18.22
2022-08-20T09:40:47.067Z,18.36
2022-08-20T09:41:50.069Z,18.37
2022-08-20T09:42:53.711Z,18.28
2022-08-20T09:43:56.728Z,18.06
2022-08-20T09:45:00.439Z,18.24
2022-08-20T09:46:03.472Z,18.11
2022-08-20T09:47:06.891Z,18.10
2022-08-20T09:48:10.471Z,18.00
2022-08-20T09:49:13.757Z,18.03
2022-08-20T09:50:16.829Z,17.96
2022-08-20T09:51:19.785Z,18.04
2022-08-20T09:52:38.952Z,18.01
2022-08-20T09:53:44.150Z,18.13
2022-08-20T09:54:47.352Z,18.03
2022-08-20T09:55:53.425Z,18.13
2022-08-20T09:56:58.992Z,18.03
2022-08-20T09:58:06.751Z,17.96
2022-08-20T09:59:09.853Z,17.96
2022-08-20T10:00:13.216Z,17.93
2022-08-20T10:01:19.022Z,17.88
2022-08-20T10:02:22.113Z,17.82
2022-08-20T10:03:25.221Z,17.90
2022-08-20T10:04:28.217Z,17.84
2022-08-20T10:05:31.967Z,17.88
2022-08-20T10:06:40.614Z,17.83
2022-08-20T10:07:44.030Z,17.83
2022-08-20T10:08:48.733Z,17.72
2022-08-20T10:09:51.881Z,17.64
2022-08-20T10:10:55.332Z,17.71
2022-08-20T10:11:58.160Z,17.69
2022-08-20T10:13:01.477Z,17.71
2022-08-20T10:14:04.636Z,17.67
2022-08-20T10:15:09.070Z,17.71
2022-08-20T10:16:12.065Z,17.81
2022-08-20T10:17:15.099Z,17.77
2022-08-20T10:18:18.041Z,17.71
2022-08-20T10:19:20.964Z,17.77
2022-08-20T10:20:27.497Z,17.85
2022-08-20T10:21:38.488Z,17.90
2022-08-20T10:22:42.227Z,17.90
2022-08-20T10:23:45.857Z,18.12
2022-08-20T10:24:48.810Z,18.14
2022-08-20T10:25:52.781Z,18.18
2022-08-20T10:26:58.940Z,18.13
2022-08-20T10:28:03.738Z,18.17
2022-08-20T10:29:06.677Z,18.15
2022-08-20T10:30:10.460Z,18.26
2022-08-20T10:31:14.521Z,18.34
2022-08-20T10:32:18.964Z,18.45
2022-08-20T10:33:24.264Z,18.46
2022-08-20T10:34:27.261Z,18.48
2022-08-20T10:35:30.640Z,18.51
2022-08-20T10:36:33.683Z,18.53
2022-08-20T10:37:42.807Z,18.82
2022-08-20T10:38:46.616Z,19.01
2022-08-20T10:39:52.949Z,19.18
2022-08-20T10:40:55.994Z,19.20
2022-08-20T10:41:58.920Z,19.36
2022-08-20T10:43:02.247Z,19.52
2022-08-20T10:44:05.648Z,19.54
2022-08-20T10:45:09.302Z,19.69
2022-08-20T10:46:12.456Z,19.86
2022-08-20T10:47:24.815Z,20.01
2022-08-20T10:48:32.010Z,20.27
2022-08-20T10:49:35.083Z,20.39
2022-08-20T10:50:38.171Z,20.13
2022-08-20T10:51:41.121Z,20.19
2022-08-20T10:52:44.492Z,20.55
2022-08-20T10:53:47.449Z,20.56
2022-08-20T10:54:51.516Z,20.48
2022-08-20T10:55:55.926Z,20.56
2022-08-20T10:57:03.707Z,20.76
2022-08-20T10:58:08.225Z,20.74
2022-08-20T10:59:14.346Z,20.46
2022-08-20T11:00:25.834Z,20.67
2022-08-20T11:01:32.683Z,20.79
2022-08-20T11:02:37.366Z,20.70
2022-08-20T11:03:44.026Z,20.46
2022-08-20T11:04:48.115Z,20.29
2022-08-20T11:05:51.226Z,20.25
2022-08-20T11:06:54.134Z,19.96
2022-08-20T11:07:57.104Z,19.84
2022-08-20T11:08:59.991Z,19.94
2022-08-20T11:10:04.385Z,19.88
2022-08-20T11:11:11.061Z,19.90
2022-08-20T11:12:15.103Z,19.98
2022-08-20T11:13:18.278Z,19.92
2022-08-20T11:14:21.138Z,19.62
2022-08-20T11:15:24.302Z,19.94
2022-08-20T11:16:27.306Z,20.18
2022-08-20T11:17:33.882Z,19.96
2022-08-20T11:18:43.740Z,20.13
2022-08-20T11:19:50.574Z,20.26
2022-08-20T11:20:53.509Z,20.25
2022-08-20T11:21:56.847Z,20.20
2022-08-20T11:23:05.865Z,20.50
2022-08-20T11:24:08.723Z,20.57
2022-08-20T11:25:12.494Z,20.48
2022-08-20T11:26:22.387Z,20.79
2022-08-20T11:27:33.450Z,21.06
2022-08-20T11:28:36.367Z,21.29
2022-08-20T11:29:39.595Z,21.15
2022-08-20T11:30:46.735Z,21.03
2022-08-20T11:31:49.639Z,21.08
2022-08-20T11:32:52.784Z,21.16
2022-08-20T11:33:55.854Z,21.13
2022-08-20T11:34:58.821Z,21.29
2022-08-20T11:36:01.756Z,21.61
2022-08-20T11:37:04.771Z,21.55
2022-08-20T11:38:07.891Z,21.98
2022-08-20T11:39:11.309Z,21.66
2022-08-20T11:40:14.403Z,21.79
2022-08-20T11:41:17.272Z,21.82
2022-08-20T11:42:24.084Z,21.57
2022-08-20T11:43:26.959Z,21.46
2022-08-20T11:44:29.921Z,21.41
2022-08-20T11:45:32.946Z,21.44
2022-08-20T11:46:40.761Z,21.52
2022-08-20T11:47:43.739Z,21.55
2022-08-20T11:48:46.974Z,21.45
2022-08-20T11:49:59.900Z,21.13
2022-08-20T11:51:02.893Z,21.09
2022-08-20T11:52:06.316Z,20.78
2022-08-20T11:53:10.271Z,20.79
2022-08-20T11:54:13.148Z,20.58
2022-08-20T11:55:18.371Z,20.33
2022-08-20T11:56:21.835Z,20.44
2022-08-20T11:57:33.677Z,20.58
2022-08-20T11:58:36.866Z,20.51
2022-08-20T11:59:39.855Z,20.70
2022-08-20T12:00:42.997Z,20.61
2022-08-20T12:02:01.930Z,20.52
2022-08-20T12:03:10.230Z,20.62
2022-08-20T12:04:14.592Z,20.40
2022-08-20T12:05:18.317Z,20.47
2022-08-20T12:06:21.244Z,20.66
2022-08-20T12:07:26.016Z,20.57
2022-08-20T12:08:29.780Z,20.86
2022-08-20T12:09:32.779Z,21.09
2022-08-20T12:10:37.387Z,21.24
2022-08-20T12:11:40.293Z,21.01
2022-08-20T12:12:46.486Z,21.03
2022-08-20T12:13:49.593Z,20.89
2022-08-20T12:14:55.547Z,20.85
2022-08-20T12:15:59.563Z,20.71
2022-08-20T12:17:15.054Z,20.79
2022-08-20T12:18:18.257Z,20.70
2022-08-20T12:19:21.331Z,20.80
2022-08-20T12:20:25.620Z,20.87
2022-08-20T12:21:32.392Z,20.95
2022-08-20T12:22:35.568Z,21.03
2022-08-20T12:23:38.888Z,21.02
2022-08-20T12:24:41.984Z,21.05
2022-08-20T12:25:44.829Z,21.07
2022-08-20T12:26:47.882Z,21.03
2022-08-20T12:27:50.844Z,21.34
2022-08-20T12:28:56.112Z,21.53
2022-08-20T12:30:02.071Z,21.36
2022-08-20T12:31:05.381Z,21.33
2022-08-20T12:32:09.666Z,21.31
2022-08-20T12:33:14.910Z,21.02
2022-08-20T12:34:17.838Z,20.92
2022-08-20T12:35:22.248Z,21.19
2022-08-20T12:36:25.255Z,21.24
2022-08-20T12:37:31.309Z,21.00
2022-08-20T12:38:34.567Z,21.15
2022-08-20T12:39:46.239Z,21.52
2022-08-20T12:40:50.727Z,21.53
2022-08-20T12:41:54.744Z,21.32
2022-08-20T12:43:00.969Z,21.37
2022-08-20T12:44:07.291Z,21.06
2022-08-20T12:45:17.183Z,20.89
2022-08-20T12:46:20.215Z,20.94
2022-08-20T12:47:26.414Z,20.79
2022-08-20T12:48:29.332Z,20.83
2022-08-20T12:49:32.338Z,21.03
2022-08-20T12:50:38.497Z,21.06
2022-08-20T12:51:41.467Z,21.18
2022-08-20T12:52:44.809Z,21.16
2022-08-20T12:53:47.658Z,21.26
2022-08-20T12:54:51.066Z,21.08
2022-08-20T12:55:53.937Z,21.07
2022-08-20T12:56:57.340Z,21.12
2022-08-20T12:58:02.734Z,21.05
2022-08-20T12:59:06.756Z,21.11
2022-08-20T13:00:17.759Z,20.99
2022-08-20T13:01:22.081Z,20.95
2022-08-20T13:02:25.207Z,21.06
2022-08-20T13:03:32.233Z,21.21
2022-08-20T13:04:35.243Z,21.27
2022-08-20T13:05:39.899Z,21.39
2022-08-20T13:06:43.024Z,21.34
2022-08-20T13:07:47.248Z,21.45
2022-08-20T13:08:50.247Z,21.52
2022-08-20T13:09:53.761Z,21.59
2022-08-20T13:10:56.717Z,21.64
2022-08-20T13:11:59.661Z,21.43
2022-08-20T13:13:05.493Z,21.39
2022-08-20T13:14:08.691Z,21.48
2022-08-20T13:15:12.089Z,21.42
2022-08-20T13:16:15.060Z,21.33
2022-08-20T13:17:19.512Z,21.27
2022-08-20T13:18:41.371Z,21.28
2022-08-20T13:19:45.546Z,21.32
2022-08-20T13:20:48.803Z,21.16
2022-08-20T13:21:55.944Z,21.32
2022-08-20T13:22:59.194Z,21.41
2022-08-20T13:24:02.372Z,21.34
2022-08-20T13:25:06.666Z,21.21
2022-08-20T13:26:09.857Z,21.37
2022-08-20T13:27:19.914Z,21.45
2022-08-20T13:28:23.126Z,21.31
2022-08-20T13:29:26.083Z,21.60
2022-08-20T13:30:29.023Z,21.78
2022-08-20T13:31:32.025Z,21.56
2022-08-20T13:32:35.027Z,21.48
2022-08-20T13:33:38.166Z,21.57
2022-08-20T13:34:41.336Z,21.72
2022-08-20T13:35:44.482Z,21.81
2022-08-20T13:36:47.490Z,21.62
2022-08-20T13:37:51.041Z,21.64
2022-08-20T13:38:54.114Z,21.64
2022-08-20T13:39:58.632Z,21.47
2022-08-20T13:41:01.573Z,21.48
2022-08-20T13:42:04.740Z,21.65
2022-08-20T13:43:07.811Z,21.72
2022-08-20T13:44:15.153Z,21.56
2022-08-20T13:45:18.263Z,21.52
2022-08-20T13:46:21.318Z,21.43
2022-08-20T13:47:32.773Z,21.53
2022-08-20T13:48:35.750Z,21.38
2022-08-20T13:49:38.601Z,21.73
2022-08-20T13:50:41.591Z,21.77
2022-08-20T13:51:44.610Z,21.78
2022-08-20T13:52:49.636Z,21.84
2022-08-20T13:53:52.686Z,21.93
2022-08-20T13:54:55.707Z,22.04
2022-08-20T13:55:58.740Z,22.09
2022-08-20T13:57:17.099Z,22.26
2022-08-20T13:58:20.169Z,22.44
2022-08-20T13:59:24.559Z,22.57
2022-08-20T14:00:32.213Z,22.50
2022-08-20T14:01:39.170Z,22.05
2022-08-20T14:02:43.117Z,21.72
2022-08-20T14:03:46.881Z,22.03
2022-08-20T14:04:51.451Z,21.95
2022-08-20T14:05:54.695Z,21.94
2022-08-20T14:06:57.666Z,22.17